sensor_id;sensor_type;location;lat;lon;timestamp;pressure;altitude;pressure_sealevel;temperature;humidity
12203;BME280;6164;42.178;24.622;2023-06-14T00:01:49;99286.72;;;20.99;100.00
12203;BME280;6164;42.178;24.622;2023-06-14T00:04:16;99281.00;;;20.95;100.00
12203;BME280;6164;42.178;24.622;2023-06-14T00:06:44;99293.38;;;20.97;100.00
12203;BME280;6164;42.178;24.622;2023-06-14T00:09:12;99298.16;;;20.94;100.00
12203;BME280;6164;42.178;24.622;2023-06-14T00:11:39;99290.41;;;20.81;100.00
12203;BME280;6164;42.178;24.622;2023-06-14T00:14:06;99299.44;;;20.75;100.00
12203;BME280;6164;42.178;24.622;2023-06-14T00:16:33;99306.47;;;20.65;100.00
12203;BME280;6164;42.178;24.622;2023-06-14T00:19:00;99302.63;;;20.61;100.00
12203;BME280;6164;42.178;24.622;2023-06-14T00:21:28;99295.06;;;20.58;100.00
12203;BME280;6164;42.178;24.622;2023-06-14T00:23:55;99291.63;;;20.46;100.00
12203;BME280;6164;42.178;24.622;2023-06-14T00:26:23;99294.56;;;20.44;100.00
12203;BME280;6164;42.178;24.622;2023-06-14T00:28:51;99292.69;;;20.45;100.00
12203;BME280;6164;42.178;24.622;2023-06-14T00:31:18;99299.47;;;20.36;100.00
12203;BME280;6164;42.178;24.622;2023-06-14T00:33:46;99293.78;;;20.32;100.00
12203;BME280;6164;42.178;24.622;2023-06-14T00:36:12;99300.84;;;20.38;100.00
12203;BME280;6164;42.178;24.622;2023-06-14T00:38:39;99305.63;;;20.36;100.00
12203;BME280;6164;42.178;24.622;2023-06-14T00:41:06;99293.97;;;20.42;100.00
12203;BME280;6164;42.178;24.622;2023-06-14T00:43:34;99295.69;;;20.48;100.00
12203;BME280;6164;42.178;24.622;2023-06-14T00:46:01;99291.41;;;20.47;100.00
12203;BME280;6164;42.178;24.622;2023-06-14T00:48:28;99293.00;;;20.48;100.00
12203;BME280;6164;42.178;24.622;2023-06-14T00:50:56;99288.00;;;20.52;100.00
12203;BME280;6164;42.178;24.622;2023-06-14T00:53:24;99286.94;;;20.53;100.00
12203;BME280;6164;42.178;24.622;2023-06-14T00:55:51;99283.13;;;20.49;100.00
12203;BME280;6164;42.178;24.622;2023-06-14T00:58:17;99278.44;;;20.56;100.00
12203;BME280;6164;42.178;24.622;2023-06-14T01:00:46;99276.69;;;20.50;100.00
12203;BME280;6164;42.178;24.622;2023-06-14T01:03:13;99281.22;;;20.49;100.00
12203;BME280;6164;42.178;24.622;2023-06-14T01:05:47;99285.88;;;20.54;100.00
12203;BME280;6164;42.178;24.622;2023-06-14T01:08:22;99282.03;;;20.50;100.00
12203;BME280;6164;42.178;24.622;2023-06-14T01:10:56;99283.94;;;20.38;100.00
12203;BME280;6164;42.178;24.622;2023-06-14T01:13:29;99286.56;;;20.33;100.00
12203;BME280;6164;42.178;24.622;2023-06-14T01:16:00;99290.41;;;20.25;100.00
12203;BME280;6164;42.178;24.622;2023-06-14T01:18:27;99281.94;;;20.17;100.00
12203;BME280;6164;42.178;24.622;2023-06-14T01:20:55;99291.13;;;20.21;100.00
12203;BME280;6164;42.178;24.622;2023-06-14T01:23:23;99273.75;;;20.12;100.00
12203;BME280;6164;42.178;24.622;2023-06-14T01:25:50;99291.81;;;20.28;100.00
12203;BME280;6164;42.178;24.622;2023-06-14T01:28:20;99286.91;;;20.25;100.00
12203;BME280;6164;42.178;24.622;2023-06-14T01:30:49;99284.72;;;20.22;100.00
12203;BME280;6164;42.178;24.622;2023-06-14T01:33:21;99284.00;;;20.26;100.00
12203;BME280;6164;42.178;24.622;2023-06-14T01:35:50;99291.00;;;20.27;100.00
12203;BME280;6164;42.178;24.622;2023-06-14T01:38:18;99287.34;;;20.33;100.00
12203;BME280;6164;42.178;24.622;2023-06-14T01:40:47;99288.03;;;20.40;100.00
12203;BME280;6164;42.178;24.622;2023-06-14T01:43:16;99277.66;;;20.44;100.00
12203;BME280;6164;42.178;24.622;2023-06-14T01:45:45;99256.59;;;20.36;100.00
12203;BME280;6164;42.178;24.622;2023-06-14T01:48:14;99275.75;;;20.56;100.00
12203;BME280;6164;42.178;24.622;2023-06-14T01:50:41;99281.09;;;20.56;100.00
12203;BME280;6164;42.178;24.622;2023-06-14T01:53:08;99280.38;;;20.60;100.00
12203;BME280;6164;42.178;24.622;2023-06-14T01:55:35;99269.06;;;20.58;100.00
12203;BME280;6164;42.178;24.622;2023-06-14T01:58:04;99277.56;;;20.67;100.00
12203;BME280;6164;42.178;24.622;2023-06-14T02:00:31;99282.34;;;20.65;100.00
12203;BME280;6164;42.178;24.622;2023-06-14T02:02:58;99282.34;;;20.65;100.00
12203;BME280;6164;42.178;24.622;2023-06-14T02:05:25;99278.81;;;20.64;100.00
12203;BME280;6164;42.178;24.622;2023-06-14T02:07:52;99284.28;;;20.69;100.00
12203;BME280;6164;42.178;24.622;2023-06-14T02:10:20;99278.69;;;20.71;100.00
12203;BME280;6164;42.178;24.622;2023-06-14T02:12:47;99277.31;;;20.68;100.00
12203;BME280;6164;42.178;24.622;2023-06-14T02:15:15;99278.50;;;20.61;100.00
12203;BME280;6164;42.178;24.622;2023-06-14T02:17:43;99276.69;;;20.50;100.00
12203;BME280;6164;42.178;24.622;2023-06-14T02:20:11;99237.28;;;20.22;100.00
12203;BME280;6164;42.178;24.622;2023-06-14T02:22:38;99286.19;;;20.41;100.00
12203;BME280;6164;42.178;24.622;2023-06-14T02:25:05;99285.25;;;20.35;100.00
12203;BME280;6164;42.178;24.622;2023-06-14T02:27:32;99288.75;;;20.36;100.00
12203;BME280;6164;42.178;24.622;2023-06-14T02:30:00;99281.22;;;20.21;100.00
12203;BME280;6164;42.178;24.622;2023-06-14T02:32:28;99288.66;;;20.31;100.00
12203;BME280;6164;42.178;24.622;2023-06-14T02:34:55;99283.44;;;20.24;100.00
12203;BME280;6164;42.178;24.622;2023-06-14T02:37:22;99276.66;;;20.22;100.00
12203;BME280;6164;42.178;24.622;2023-06-14T02:39:49;99279.94;;;20.24;100.00
12203;BME280;6164;42.178;24.622;2023-06-14T02:42:16;99277.72;;;20.21;100.00
12203;BME280;6164;42.178;24.622;2023-06-14T02:44:42;99282.38;;;20.14;100.00
12203;BME280;6164;42.178;24.622;2023-06-14T02:47:10;99286.13;;;20.13;100.00
12203;BME280;6164;42.178;24.622;2023-06-14T02:49:38;99280.41;;;20.09;100.00
12203;BME280;6164;42.178;24.622;2023-06-14T02:52:05;99283.69;;;20.11;100.00
12203;BME280;6164;42.178;24.622;2023-06-14T02:54:34;99289.81;;;20.12;100.00
12203;BME280;6164;42.178;24.622;2023-06-14T02:57:01;99296.84;;;20.13;100.00
12203;BME280;6164;42.178;24.622;2023-06-14T02:59:28;99297.31;;;20.10;100.00
12203;BME280;6164;42.178;24.622;2023-06-14T03:01:55;99299.78;;;20.00;100.00
12203;BME280;6164;42.178;24.622;2023-06-14T03:04:21;99298.63;;;19.84;100.00
12203;BME280;6164;42.178;24.622;2023-06-14T03:06:52;99309.94;;;19.75;100.00
12203;BME280;6164;42.178;24.622;2023-06-14T03:09:19;99310.88;;;19.69;100.00
12203;BME280;6164;42.178;24.622;2023-06-14T03:11:46;99315.66;;;19.67;100.00
12203;BME280;6164;42.178;24.622;2023-06-14T03:14:13;99317.25;;;19.67;100.00
12203;BME280;6164;42.178;24.622;2023-06-14T03:16:40;99318.91;;;19.57;100.00
12203;BME280;6164;42.178;24.622;2023-06-14T03:19:08;99322.25;;;19.52;100.00
12203;BME280;6164;42.178;24.622;2023-06-14T03:21:34;99319.81;;;19.39;100.00
12203;BME280;6164;42.178;24.622;2023-06-14T03:24:03;99320.88;;;19.38;100.00
12203;BME280;6164;42.178;24.622;2023-06-14T03:26:29;99317.31;;;19.26;100.00
12203;BME280;6164;42.178;24.622;2023-06-14T03:28:56;99325.69;;;19.18;100.00
12203;BME280;6164;42.178;24.622;2023-06-14T03:31:23;99331.41;;;19.22;100.00
12203;BME280;6164;42.178;24.622;2023-06-14T03:33:50;99322.59;;;19.33;100.00
12203;BME280;6164;42.178;24.622;2023-06-14T03:36:16;99327.25;;;19.37;100.00
12203;BME280;6164;42.178;24.622;2023-06-14T03:38:44;99334.25;;;19.38;100.00
12203;BME280;6164;42.178;24.622;2023-06-14T03:41:12;99336.13;;;19.49;100.00
12203;BME280;6164;42.178;24.622;2023-06-14T03:43:38;99332.97;;;19.52;100.00
12203;BME280;6164;42.178;24.622;2023-06-14T03:46:05;99339.03;;;19.59;100.00
12203;BME280;6164;42.178;24.622;2023-06-14T03:48:32;99340.09;;;19.58;100.00
12203;BME280;6164;42.178;24.622;2023-06-14T03:50:58;99342.31;;;19.61;100.00
12203;BME280;6164;42.178;24.622;2023-06-14T03:53:25;99342.91;;;19.63;100.00
12203;BME280;6164;42.178;24.622;2023-06-14T03:55:54;99339.50;;;19.68;100.00
12203;BME280;6164;42.178;24.622;2023-06-14T03:58:23;99336.25;;;19.78;100.00
12203;BME280;6164;42.178;24.622;2023-06-14T04:00:50;99342.66;;;19.88;100.00
12203;BME280;6164;42.178;24.622;2023-06-14T04:03:17;99347.31;;;19.93;100.00
12203;BME280;6164;42.178;24.622;2023-06-14T04:05:45;99343.19;;;20.02;100.00
12203;BME280;6164;42.178;24.622;2023-06-14T04:08:14;99338.78;;;20.07;100.00
12203;BME280;6164;42.178;24.622;2023-06-14T04:10:44;99344.00;;;20.14;100.00
12203;BME280;6164;42.178;24.622;2023-06-14T04:13:11;99343.44;;;20.23;100.00
12203;BME280;6164;42.178;24.622;2023-06-14T04:15:40;99354.03;;;20.30;100.00
12203;BME280;6164;42.178;24.622;2023-06-14T04:18:09;99342.94;;;20.38;100.00
12203;BME280;6164;42.178;24.622;2023-06-14T04:20:35;99348.50;;;20.48;100.00
12203;BME280;6164;42.178;24.622;2023-06-14T04:23:11;99324.75;;;20.40;100.00
12203;BME280;6164;42.178;24.622;2023-06-14T04:25:38;99338.81;;;20.58;100.00
12203;BME280;6164;42.178;24.622;2023-06-14T04:28:05;99346.59;;;20.60;100.00
12203;BME280;6164;42.178;24.622;2023-06-14T04:30:34;99334.38;;;20.64;100.00
12203;BME280;6164;42.178;24.622;2023-06-14T04:33:05;99335.25;;;20.69;100.00
12203;BME280;6164;42.178;24.622;2023-06-14T04:35:32;99342.91;;;20.77;100.00
12203;BME280;6164;42.178;24.622;2023-06-14T04:38:01;99324.97;;;20.78;100.00
12203;BME280;6164;42.178;24.622;2023-06-14T04:40:30;99335.41;;;20.91;100.00
12203;BME280;6164;42.178;24.622;2023-06-14T04:42:56;99338.78;;;20.98;100.00
12203;BME280;6164;42.178;24.622;2023-06-14T04:45:23;99335.63;;;21.01;100.00
12203;BME280;6164;42.178;24.622;2023-06-14T04:47:58;99340.25;;;21.06;100.00
12203;BME280;6164;42.178;24.622;2023-06-14T04:50:26;99347.34;;;21.12;100.00
12203;BME280;6164;42.178;24.622;2023-06-14T04:52:55;99341.16;;;21.11;100.00
12203;BME280;6164;42.178;24.622;2023-06-14T04:55:22;99347.78;;;21.20;100.00
12203;BME280;6164;42.178;24.622;2023-06-14T04:57:50;99354.59;;;21.28;100.00
12203;BME280;6164;42.178;24.622;2023-06-14T05:00:19;99349.06;;;21.34;100.00
12203;BME280;6164;42.178;24.622;2023-06-14T05:02:46;99358.19;;;21.33;100.00
12203;BME280;6164;42.178;24.622;2023-06-14T05:05:14;99346.16;;;21.36;100.00
12203;BME280;6164;42.178;24.622;2023-06-14T05:07:42;99351.84;;;21.39;100.00
12203;BME280;6164;42.178;24.622;2023-06-14T05:10:09;99355.44;;;21.45;100.00
12203;BME280;6164;42.178;24.622;2023-06-14T05:12:36;99356.97;;;21.41;100.00
12203;BME280;6164;42.178;24.622;2023-06-14T05:15:04;99359.50;;;21.47;100.00
12203;BME280;6164;42.178;24.622;2023-06-14T05:17:30;99366.47;;;21.48;100.00
12203;BME280;6164;42.178;24.622;2023-06-14T05:19:57;99370.56;;;21.51;100.00
12203;BME280;6164;42.178;24.622;2023-06-14T05:22:24;99367.31;;;21.49;100.00
12203;BME280;6164;42.178;24.622;2023-06-14T05:24:52;99365.78;;;21.53;100.00
12203;BME280;6164;42.178;24.622;2023-06-14T05:27:19;99369.25;;;21.53;100.00
12203;BME280;6164;42.178;24.622;2023-06-14T05:29:45;99375.22;;;21.55;100.00
12203;BME280;6164;42.178;24.622;2023-06-14T05:32:12;99377.88;;;21.55;100.00
12203;BME280;6164;42.178;24.622;2023-06-14T05:34:39;99383.09;;;21.62;100.00
12203;BME280;6164;42.178;24.622;2023-06-14T05:37:05;99386.94;;;21.66;100.00
12203;BME280;6164;42.178;24.622;2023-06-14T05:39:32;99387.19;;;21.64;100.00
12203;BME280;6164;42.178;24.622;2023-06-14T05:42:00;99387.75;;;21.50;100.00
12203;BME280;6164;42.178;24.622;2023-06-14T05:44:27;99385.44;;;21.42;100.00
12203;BME280;6164;42.178;24.622;2023-06-14T05:46:54;99396.59;;;21.50;100.00
12203;BME280;6164;42.178;24.622;2023-06-14T05:49:21;99395.75;;;21.61;100.00
12203;BME280;6164;42.178;24.622;2023-06-14T05:51:47;99397.28;;;21.57;100.00
12203;BME280;6164;42.178;24.622;2023-06-14T05:54:14;99405.41;;;21.62;100.00
12203;BME280;6164;42.178;24.622;2023-06-14T05:56:41;99401.75;;;21.68;100.00
12203;BME280;6164;42.178;24.622;2023-06-14T05:59:09;99393.94;;;21.67;100.00
12203;BME280;6164;42.178;24.622;2023-06-14T06:01:35;99396.31;;;21.80;100.00
12203;BME280;6164;42.178;24.622;2023-06-14T06:04:03;99402.31;;;22.03;100.00
12203;BME280;6164;42.178;24.622;2023-06-14T06:06:29;99403.41;;;22.24;100.00
12203;BME280;6164;42.178;24.622;2023-06-14T06:08:56;99394.38;;;22.30;100.00
12203;BME280;6164;42.178;24.622;2023-06-14T06:11:23;99393.94;;;22.38;100.00
12203;BME280;6164;42.178;24.622;2023-06-14T06:13:50;99387.81;;;22.43;100.00
12203;BME280;6164;42.178;24.622;2023-06-14T06:16:18;99395.88;;;22.43;100.00
12203;BME280;6164;42.178;24.622;2023-06-14T06:18:45;99389.53;;;22.49;100.00
12203;BME280;6164;42.178;24.622;2023-06-14T06:21:11;99388.72;;;22.70;100.00
12203;BME280;6164;42.178;24.622;2023-06-14T06:23:38;99387.25;;;22.84;100.00
12203;BME280;6164;42.178;24.622;2023-06-14T06:26:05;99383.22;;;23.08;100.00
12203;BME280;6164;42.178;24.622;2023-06-14T06:28:31;99383.28;;;23.13;100.00
12203;BME280;6164;42.178;24.622;2023-06-14T06:30:58;99374.69;;;23.16;100.00
12203;BME280;6164;42.178;24.622;2023-06-14T06:33:26;99381.63;;;23.33;100.00
12203;BME280;6164;42.178;24.622;2023-06-14T06:35:53;99381.41;;;23.40;100.00
12203;BME280;6164;42.178;24.622;2023-06-14T06:38:20;99387.16;;;23.49;100.00
12203;BME280;6164;42.178;24.622;2023-06-14T06:40:46;99386.66;;;23.57;100.00
12203;BME280;6164;42.178;24.622;2023-06-14T06:43:13;99387.91;;;23.17;100.00
12203;BME280;6164;42.178;24.622;2023-06-14T06:45:42;99387.91;;;23.17;100.00
12203;BME280;6164;42.178;24.622;2023-06-14T06:48:08;99387.44;;;23.25;100.00
12203;BME280;6164;42.178;24.622;2023-06-14T06:50:37;99389.09;;;23.26;100.00
12203;BME280;6164;42.178;24.622;2023-06-14T06:53:04;99384.00;;;23.30;100.00
12203;BME280;6164;42.178;24.622;2023-06-14T06:55:32;99391.16;;;23.46;100.00
12203;BME280;6164;42.178;24.622;2023-06-14T06:57:58;99386.94;;;23.55;100.00
12203;BME280;6164;42.178;24.622;2023-06-14T07:00:25;99394.78;;;23.62;100.00
12203;BME280;6164;42.178;24.622;2023-06-14T07:02:52;99384.22;;;23.87;100.00
12203;BME280;6164;42.178;24.622;2023-06-14T07:05:20;99384.66;;;24.10;100.00
12203;BME280;6164;42.178;24.622;2023-06-14T07:07:48;99396.09;;;24.27;100.00
12203;BME280;6164;42.178;24.622;2023-06-14T07:10:15;99387.53;;;24.40;100.00
12203;BME280;6164;42.178;24.622;2023-06-14T07:12:41;99347.03;;;24.35;100.00
12203;BME280;6164;42.178;24.622;2023-06-14T07:15:09;99389.59;;;24.80;100.00
12203;BME280;6164;42.178;24.622;2023-06-14T07:17:36;99403.19;;;25.00;100.00
12203;BME280;6164;42.178;24.622;2023-06-14T07:20:03;99382.63;;;24.99;100.00
12203;BME280;6164;42.178;24.622;2023-06-14T07:22:37;99386.72;;;25.07;100.00
12203;BME280;6164;42.178;24.622;2023-06-14T07:25:06;99382.38;;;24.96;100.00
12203;BME280;6164;42.178;24.622;2023-06-14T07:27:33;99376.72;;;25.02;100.00
12203;BME280;6164;42.178;24.622;2023-06-14T07:30:00;99375.66;;;25.18;100.00
12203;BME280;6164;42.178;24.622;2023-06-14T07:32:27;99378.09;;;25.30;100.00
12203;BME280;6164;42.178;24.622;2023-06-14T07:34:53;99383.50;;;25.25;100.00
12203;BME280;6164;42.178;24.622;2023-06-14T07:37:20;99382.41;;;25.31;100.00
12203;BME280;6164;42.178;24.622;2023-06-14T07:39:47;99379.72;;;25.31;100.00
12203;BME280;6164;42.178;24.622;2023-06-14T07:42:15;99386.00;;;25.46;100.00
12203;BME280;6164;42.178;24.622;2023-06-14T07:44:42;99386.00;;;25.66;100.00
12203;BME280;6164;42.178;24.622;2023-06-14T07:47:08;99365.16;;;25.72;100.00
12203;BME280;6164;42.178;24.622;2023-06-14T07:49:35;99380.28;;;26.03;100.00
12203;BME280;6164;42.178;24.622;2023-06-14T07:52:03;99394.03;;;26.27;100.00
12203;BME280;6164;42.178;24.622;2023-06-14T07:54:30;99378.63;;;26.32;100.00
12203;BME280;6164;42.178;24.622;2023-06-14T07:56:58;99388.81;;;26.55;100.00
12203;BME280;6164;42.178;24.622;2023-06-14T07:59:27;99379.84;;;26.65;100.00
12203;BME280;6164;42.178;24.622;2023-06-14T08:01:54;99386.81;;;26.81;100.00
12203;BME280;6164;42.178;24.622;2023-06-14T08:04:20;99386.72;;;27.01;100.00
12203;BME280;6164;42.178;24.622;2023-06-14T08:06:47;99401.50;;;26.75;100.00
12203;BME280;6164;42.178;24.622;2023-06-14T08:09:14;99407.75;;;26.70;100.00
12203;BME280;6164;42.178;24.622;2023-06-14T08:11:41;99406.38;;;26.68;100.00
12203;BME280;6164;42.178;24.622;2023-06-14T08:14:08;99403.69;;;26.58;100.00
12203;BME280;6164;42.178;24.622;2023-06-14T08:16:36;99399.09;;;26.58;100.00
12203;BME280;6164;42.178;24.622;2023-06-14T08:19:03;99403.56;;;26.04;100.00
12203;BME280;6164;42.178;24.622;2023-06-14T08:21:30;99408.16;;;26.14;100.00
12203;BME280;6164;42.178;24.622;2023-06-14T08:23:59;99411.94;;;26.13;100.00
12203;BME280;6164;42.178;24.622;2023-06-14T08:26:25;99413.81;;;25.97;100.00
12203;BME280;6164;42.178;24.622;2023-06-14T08:28:54;99417.09;;;25.89;100.00
12203;BME280;6164;42.178;24.622;2023-06-14T08:31:21;99413.56;;;25.78;100.00
12203;BME280;6164;42.178;24.622;2023-06-14T08:33:49;99414.91;;;25.61;100.00
12203;BME280;6164;42.178;24.622;2023-06-14T08:36:16;99422.75;;;25.77;100.00
12203;BME280;6164;42.178;24.622;2023-06-14T08:38:42;99418.19;;;25.83;100.00
12203;BME280;6164;42.178;24.622;2023-06-14T08:41:11;99425.19;;;25.89;100.00
12203;BME280;6164;42.178;24.622;2023-06-14T08:43:38;99429.78;;;25.78;100.00
12203;BME280;6164;42.178;24.622;2023-06-14T08:46:06;99431.19;;;26.01;100.00
12203;BME280;6164;42.178;24.622;2023-06-14T08:48:34;99398.13;;;25.99;100.00
12203;BME280;6164;42.178;24.622;2023-06-14T08:51:03;99429.75;;;26.34;100.00
12203;BME280;6164;42.178;24.622;2023-06-14T08:53:32;99428.38;;;26.41;100.00
12203;BME280;6164;42.178;24.622;2023-06-14T08:55:59;99416.47;;;26.47;100.00
12203;BME280;6164;42.178;24.622;2023-06-14T08:58:27;99424.03;;;26.55;100.00
12203;BME280;6164;42.178;24.622;2023-06-14T09:00:55;99426.72;;;26.55;100.00
12203;BME280;6164;42.178;24.622;2023-06-14T09:03:22;99418.66;;;26.30;100.00
12203;BME280;6164;42.178;24.622;2023-06-14T09:05:54;99421.63;;;26.34;100.00
12203;BME280;6164;42.178;24.622;2023-06-14T09:08:22;99419.19;;;26.37;100.00
12203;BME280;6164;42.178;24.622;2023-06-14T09:10:49;99402.19;;;26.22;100.00
12203;BME280;6164;42.178;24.622;2023-06-14T09:13:17;99414.88;;;26.26;100.00
12203;BME280;6164;42.178;24.622;2023-06-14T09:15:44;99409.97;;;26.38;100.00
12203;BME280;6164;42.178;24.622;2023-06-14T09:18:11;99402.44;;;26.20;100.00
12203;BME280;6164;42.178;24.622;2023-06-14T09:20:38;99402.19;;;26.22;100.00
12203;BME280;6164;42.178;24.622;2023-06-14T09:23:04;99407.03;;;26.30;100.00
12203;BME280;6164;42.178;24.622;2023-06-14T09:25:41;99403.69;;;26.58;100.00
12203;BME280;6164;42.178;24.622;2023-06-14T09:28:08;99405.56;;;26.62;100.00
12203;BME280;6164;42.178;24.622;2023-06-14T09:30:36;99380.13;;;26.58;98.18
12203;BME280;6164;42.178;24.622;2023-06-14T09:33:03;99399.31;;;26.77;100.00
12203;BME280;6164;42.178;24.622;2023-06-14T09:35:31;99363.06;;;26.68;99.87
12203;BME280;6164;42.178;24.622;2023-06-14T09:37:58;99402.13;;;27.05;99.90
12203;BME280;6164;42.178;24.622;2023-06-14T09:40:24;99406.13;;;27.23;98.21
12203;BME280;6164;42.178;24.622;2023-06-14T09:42:53;99392.38;;;27.48;97.82
12203;BME280;6164;42.178;24.622;2023-06-14T09:45:23;99391.91;;;27.75;95.62
12203;BME280;6164;42.178;24.622;2023-06-14T09:47:50;99387.50;;;27.84;93.29
12203;BME280;6164;42.178;24.622;2023-06-14T09:50:17;99398.84;;;27.86;93.04
12203;BME280;6164;42.178;24.622;2023-06-14T09:52:44;99393.00;;;27.74;93.59
12203;BME280;6164;42.178;24.622;2023-06-14T09:55:13;99374.47;;;27.52;91.31
12203;BME280;6164;42.178;24.622;2023-06-14T09:57:41;99380.88;;;27.61;92.25
12203;BME280;6164;42.178;24.622;2023-06-14T10:00:13;99381.88;;;27.75;95.60
12203;BME280;6164;42.178;24.622;2023-06-14T10:02:42;99381.50;;;27.87;94.30
12203;BME280;6164;42.178;24.622;2023-06-14T10:05:17;99387.66;;;27.97;93.12
12203;BME280;6164;42.178;24.622;2023-06-14T10:07:52;99381.44;;;27.97;88.02
12203;BME280;6164;42.178;24.622;2023-06-14T10:10:20;99381.34;;;28.07;90.88
12203;BME280;6164;42.178;24.622;2023-06-14T10:12:47;99380.69;;;28.15;90.14
12203;BME280;6164;42.178;24.622;2023-06-14T10:15:19;99380.69;;;28.15;87.63
12203;BME280;6164;42.178;24.622;2023-06-14T10:17:52;99371.22;;;28.12;88.69
12203;BME280;6164;42.178;24.622;2023-06-14T10:20:27;99376.78;;;28.26;88.72
12203;BME280;6164;42.178;24.622;2023-06-14T10:23:02;99344.78;;;28.23;86.78
12203;BME280;6164;42.178;24.622;2023-06-14T10:25:31;99370.28;;;28.45;84.69
12203;BME280;6164;42.178;24.622;2023-06-14T10:28:15;99378.41;;;28.51;85.32
12203;BME280;6164;42.178;24.622;2023-06-14T10:31:04;99370.88;;;28.42;82.96
12203;BME280;6164;42.178;24.622;2023-06-14T10:33:32;99373.00;;;28.45;84.50
12203;BME280;6164;42.178;24.622;2023-06-14T10:36:27;99372.53;;;28.38;82.80
12203;BME280;6164;42.178;24.622;2023-06-14T10:39:00;99368.56;;;28.31;85.00
12203;BME280;6164;42.178;24.622;2023-06-14T10:41:28;99344.06;;;28.12;88.67
12203;BME280;6164;42.178;24.622;2023-06-14T10:47:00;99358.53;;;28.31;89.16
12203;BME280;6164;42.178;24.622;2023-06-14T10:49:38;99353.69;;;28.28;88.16
12203;BME280;6164;42.178;24.622;2023-06-14T10:52:09;99349.75;;;28.39;86.15
12203;BME280;6164;42.178;24.622;2023-06-14T10:54:56;99356.63;;;28.56;85.88
12203;BME280;6164;42.178;24.622;2023-06-14T10:57:22;99358.13;;;28.43;82.85
12203;BME280;6164;42.178;24.622;2023-06-14T10:59:53;99349.34;;;28.27;84.46
12203;BME280;6164;42.178;24.622;2023-06-14T11:05:49;99336.81;;;28.31;85.76
12203;BME280;6164;42.178;24.622;2023-06-14T11:08:40;99343.84;;;28.56;81.68
12203;BME280;6164;42.178;24.622;2023-06-14T11:11:14;99340.72;;;28.44;81.30
12203;BME280;6164;42.178;24.622;2023-06-14T11:13:45;99339.34;;;28.89;82.45
12203;BME280;6164;42.178;24.622;2023-06-14T11:16:12;99338.47;;;29.30;80.67
12203;BME280;6164;42.178;24.622;2023-06-14T11:18:40;99322.69;;;29.46;76.91
12203;BME280;6164;42.178;24.622;2023-06-14T11:21:08;99302.94;;;29.40;79.41
12203;BME280;6164;42.178;24.622;2023-06-14T11:23:35;99321.28;;;29.81;81.39
12203;BME280;6164;42.178;24.622;2023-06-14T11:26:02;99319.72;;;29.93;77.22
12203;BME280;6164;42.178;24.622;2023-06-14T11:28:37;99324.38;;;30.06;77.55
12203;BME280;6164;42.178;24.622;2023-06-14T11:31:04;99305.59;;;30.05;76.47
12203;BME280;6164;42.178;24.622;2023-06-14T11:33:31;99322.78;;;30.32;74.60
12203;BME280;6164;42.178;24.622;2023-06-14T11:35:58;99320.78;;;30.38;75.00
12203;BME280;6164;42.178;24.622;2023-06-14T11:38:26;99316.59;;;30.54;72.92
12203;BME280;6164;42.178;24.622;2023-06-14T11:40:58;99297.34;;;30.37;74.64
12203;BME280;6164;42.178;24.622;2023-06-14T11:43:25;99309.00;;;30.64;74.06
12203;BME280;6164;42.178;24.622;2023-06-14T11:45:53;99302.50;;;30.87;73.81
12203;BME280;6164;42.178;24.622;2023-06-14T11:48:19;99304.88;;;31.03;71.72
12203;BME280;6164;42.178;24.622;2023-06-14T11:50:49;99301.25;;;31.29;70.24
12203;BME280;6164;42.178;24.622;2023-06-14T11:53:16;99299.94;;;31.49;68.95
12203;BME280;6164;42.178;24.622;2023-06-14T11:55:44;99302.09;;;31.60;69.01
12203;BME280;6164;42.178;24.622;2023-06-14T11:58:13;99304.22;;;31.63;66.29
12203;BME280;6164;42.178;24.622;2023-06-14T12:00:39;99296.94;;;31.81;66.54
12203;BME280;6164;42.178;24.622;2023-06-14T12:03:07;99295.31;;;32.10;67.60
12203;BME280;6164;42.178;24.622;2023-06-14T12:05:34;99301.25;;;32.04;65.00
12203;BME280;6164;42.178;24.622;2023-06-14T12:08:02;99304.38;;;32.37;62.89
12203;BME280;6164;42.178;24.622;2023-06-14T12:10:39;99297.25;;;32.66;62.38
12203;BME280;6164;42.178;24.622;2023-06-14T12:13:10;99301.78;;;32.88;61.27
12203;BME280;6164;42.178;24.622;2023-06-14T12:15:37;99310.22;;;32.44;59.35
12203;BME280;6164;42.178;24.622;2023-06-14T12:18:05;99298.50;;;32.04;60.43
12203;BME280;6164;42.178;24.622;2023-06-14T12:20:36;99291.59;;;31.76;60.31
12203;BME280;6164;42.178;24.622;2023-06-14T12:23:04;99277.50;;;31.82;64.21
12203;BME280;6164;42.178;24.622;2023-06-14T12:25:32;99273.91;;;31.95;61.86
12203;BME280;6164;42.178;24.622;2023-06-14T12:28:04;99257.53;;;32.04;64.83
12203;BME280;6164;42.178;24.622;2023-06-14T12:30:32;99283.53;;;32.41;61.73
12203;BME280;6164;42.178;24.622;2023-06-14T12:32:59;99289.97;;;32.45;58.74
12203;BME280;6164;42.178;24.622;2023-06-14T12:35:25;99273.59;;;32.53;63.52
12203;BME280;6164;42.178;24.622;2023-06-14T12:37:52;99276.97;;;32.76;61.35
12203;BME280;6164;42.178;24.622;2023-06-14T12:40:19;99272.34;;;32.85;58.52
12203;BME280;6164;42.178;24.622;2023-06-14T12:42:46;99246.91;;;32.76;58.29
12203;BME280;6164;42.178;24.622;2023-06-14T12:45:13;99258.81;;;32.80;57.71
12203;BME280;6164;42.178;24.622;2023-06-14T12:47:41;99262.22;;;32.94;57.82
12203;BME280;6164;42.178;24.622;2023-06-14T12:50:08;99279.06;;;32.70;55.55
12203;BME280;6164;42.178;24.622;2023-06-14T12:52:35;99254.00;;;32.60;58.81
12203;BME280;6164;42.178;24.622;2023-06-14T12:55:03;99260.91;;;32.49;57.01
12203;BME280;6164;42.178;24.622;2023-06-14T12:57:29;99252.53;;;32.54;57.84
12203;BME280;6164;42.178;24.622;2023-06-14T12:59:56;99248.84;;;32.58;59.00
12203;BME280;6164;42.178;24.622;2023-06-14T13:02:23;99256.41;;;32.70;57.81
12203;BME280;6164;42.178;24.622;2023-06-14T13:04:52;99250.47;;;32.93;58.09